createdAt,value
2022-12-19T00:00:32.798Z,30.27
2022-12-19T00:03:18.511Z,28.38
2022-12-19T00:06:05.034Z,28.38
2022-12-19T00:08:52.803Z,26.70
2022-12-19T00:11:39.240Z,27.95
2022-12-19T00:14:24.676Z,28.98
2022-12-19T00:17:10.445Z,26.83
2022-12-19T00:19:55.798Z,28.00
2022-12-19T00:22:41.196Z,26.85
2022-12-19T00:25:26.988Z,28.73
2022-12-19T00:28:13.304Z,29.73
2022-12-19T00:31:03.133Z,29.38
2022-12-19T00:33:49.761Z,27.48
2022-12-19T00:36:35.600Z,27.65
2022-12-19T00:39:21.538Z,28.33
2022-12-19T00:42:07.480Z,27.55
2022-12-19T00:44:52.957Z,27.92
2022-12-19T00:47:38.358Z,27.83
2022-12-19T00:50:24.309Z,27.25
2022-12-19T00:53:10.061Z,26.65
2022-12-19T00:55:56.377Z,27.10
2022-12-19T00:58:46.803Z,26.27
2022-12-19T01:01:36.191Z,28.63
2022-12-19T01:04:30.087Z,27.05
2022-12-19T01:07:17.019Z,26.90
2022-12-19T01:10:03.647Z,27.42
2022-12-19T01:12:49.253Z,27.58
2022-12-19T01:15:34.643Z,28.08
2022-12-19T01:18:20.385Z,27.00
2022-12-19T01:21:09.173Z,26.33
2022-12-19T01:23:54.633Z,28.05
2022-12-19T01:26:40.831Z,27.23
2022-12-19T01:29:26.744Z,26.10
2022-12-19T01:32:12.177Z,27.83
2022-12-19T01:34:57.647Z,26.42
2022-12-19T01:37:43.158Z,25.65
2022-12-19T01:40:28.815Z,26.33
2022-12-19T01:43:15.263Z,26.02
2022-12-19T01:46:06.740Z,28.10
2022-12-19T01:48:52.998Z,26.40
2022-12-19T01:51:43.402Z,28.15
2022-12-19T01:54:36.301Z,26.45
2022-12-19T01:57:22.539Z,28.08
2022-12-19T02:00:12.932Z,27.23
2022-12-19T02:03:12.423Z,25.55
2022-12-19T02:05:59.939Z,26.55
2022-12-19T02:08:48.332Z,26.48
2022-12-19T02:11:34.436Z,24.85
2022-12-19T02:14:20.672Z,26.63
2022-12-19T02:17:21.902Z,24.95
2022-12-19T02:20:16.671Z,26.05
2022-12-19T02:23:20.182Z,26.65
2022-12-19T02:26:27.851Z,26.50
2022-12-19T02:29:55.760Z,26.90
2022-12-19T02:33:08.618Z,25.17
2022-12-19T02:35:57.617Z,24.90
2022-12-19T02:38:58.332Z,25.25
2022-12-19T02:42:05.722Z,25.77
2022-12-19T02:44:53.649Z,26.45
2022-12-19T02:47:40.141Z,24.67
2022-12-19T02:50:25.918Z,25.42
2022-12-19T02:53:14.015Z,27.45
2022-12-19T02:56:11.401Z,27.90
2022-12-19T02:59:29.486Z,27.00
2022-12-19T03:03:00.328Z,26.73
2022-12-19T03:05:49.526Z,27.75
2022-12-19T03:08:47.343Z,25.58
2022-12-19T03:11:36.572Z,26.70
2022-12-19T03:14:24.050Z,26.05
2022-12-19T03:17:09.897Z,25.88
2022-12-19T03:19:56.304Z,25.42
2022-12-19T03:22:41.741Z,26.25
2022-12-19T03:25:31.078Z,25.65
2022-12-19T03:28:23.728Z,27.98
2022-12-19T03:31:12.052Z,26.83
2022-12-19T03:34:02.798Z,26.67
2022-12-19T03:36:54.679Z,28.30
2022-12-19T03:39:43.109Z,29.00
2022-12-19T03:42:50.397Z,28.85
2022-12-19T03:46:01.210Z,26.65
2022-12-19T03:48:49.944Z,25.15
2022-12-19T03:51:59.357Z,26.63
2022-12-19T03:54:52.640Z,26.83
2022-12-19T03:57:45.109Z,26.00
2022-12-19T04:00:33.430Z,25.63
2022-12-19T04:03:21.372Z,23.92
2022-12-19T04:06:07.944Z,25.58
2022-12-19T04:08:53.592Z,25.67
2022-12-19T04:11:44.055Z,24.42
2022-12-19T04:14:35.651Z,25.95
2022-12-19T04:17:43.402Z,26.85
2022-12-19T04:20:31.439Z,25.65
2022-12-19T04:23:34.620Z,24.83
2022-12-19T04:26:21.692Z,25.77
2022-12-19T04:29:09.166Z,25.00
2022-12-19T04:31:54.715Z,25.08
2022-12-19T04:34:43.050Z,24.70
2022-12-19T04:37:29.814Z,26.27
2022-12-19T04:40:15.764Z,25.95
2022-12-19T04:43:01.398Z,25.77
2022-12-19T04:45:48.986Z,25.75
2022-12-19T04:48:37.618Z,23.55
2022-12-19T04:51:23.423Z,25.58
2022-12-19T04:54:09.512Z,24.50
2022-12-19T04:56:54.922Z,24.90
2022-12-19T04:59:40.624Z,26.90
2022-12-19T05:02:26.610Z,25.23
2022-12-19T05:05:12.545Z,26.45
2022-12-19T05:07:58.185Z,28.98
2022-12-19T05:10:44.229Z,27.17
2022-12-19T05:13:30.927Z,27.20
2022-12-19T05:16:16.589Z,29.48
2022-12-19T05:19:02.448Z,27.73
2022-12-19T05:21:47.988Z,26.40
2022-12-19T05:24:34.577Z,26.02
2022-12-19T05:27:20.123Z,25.38
2022-12-19T05:30:06.156Z,24.95
2022-12-19T05:32:52.191Z,22.30
2022-12-19T05:35:38.679Z,23.52
2022-12-19T05:38:24.089Z,24.27
2022-12-19T05:41:29.653Z,26.08
2022-12-19T05:47:00.862Z,23.92
2022-12-19T05:49:46.418Z,23.92
2022-12-19T05:52:32.023Z,25.05
2022-12-19T05:55:20.464Z,26.10
2022-12-19T05:58:06.003Z,24.83
2022-12-19T06:00:54.858Z,25.98
2022-12-19T06:03:44.342Z,26.77
2022-12-19T06:06:30.204Z,28.67
2022-12-19T06:09:15.654Z,28.88
2022-12-19T06:12:02.241Z,24.60
2022-12-19T06:14:47.679Z,24.50
2022-12-19T06:17:33.503Z,24.08
2022-12-19T06:20:19.449Z,24.52
2022-12-19T06:23:05.604Z,24.40
2022-12-19T06:25:51.904Z,24.58
2022-12-19T06:28:37.870Z,25.27
2022-12-19T06:31:25.489Z,23.77
2022-12-19T06:34:15.338Z,24.77
2022-12-19T06:37:08.567Z,23.20
2022-12-19T06:39:54.145Z,23.30
2022-12-19T06:42:39.585Z,23.08
2022-12-19T06:45:26.054Z,25.13
2022-12-19T06:48:12.570Z,23.80
2022-12-19T06:50:58.141Z,26.17
2022-12-19T06:53:43.960Z,25.25
2022-12-19T06:56:38.219Z,25.10
2022-12-19T06:59:24.027Z,25.33
2022-12-19T07:02:21.351Z,25.58
2022-12-19T07:05:09.771Z,24.90
2022-12-19T07:07:55.371Z,25.23
2022-12-19T07:10:41.490Z,25.88
2022-12-19T07:13:27.596Z,27.55
2022-12-19T07:16:13.294Z,24.95
2022-12-19T07:18:59.604Z,25.67
2022-12-19T07:21:45.498Z,25.20
2022-12-19T07:24:31.469Z,25.35
2022-12-19T07:27:17.211Z,24.50
2022-12-19T07:30:03.243Z,23.63
2022-12-19T07:32:49.068Z,22.70
2022-12-19T07:35:34.514Z,23.75
2022-12-19T07:38:20.567Z,24.50
2022-12-19T07:41:06.257Z,24.27
2022-12-19T07:43:51.761Z,23.17
2022-12-19T07:46:37.675Z,24.48
2022-12-19T07:49:23.539Z,24.52
2022-12-19T07:52:09.640Z,26.17
2022-12-19T07:54:55.684Z,26.75
2022-12-19T07:57:42.222Z,25.58
2022-12-19T08:00:27.763Z,24.23
2022-12-19T08:03:13.494Z,23.90
2022-12-19T08:06:01.195Z,23.95
2022-12-19T08:08:46.608Z,25.48
2022-12-19T08:11:32.228Z,26.15
2022-12-19T08:14:17.717Z,24.05
2022-12-19T08:17:20.904Z,25.30
2022-12-19T08:20:08.855Z,25.33
2022-12-19T08:22:54.776Z,25.10
2022-12-19T08:25:40.385Z,25.92
2022-12-19T08:28:26.103Z,26.27
2022-12-19T08:31:15.952Z,27.27
2022-12-19T08:34:02.174Z,27.83
2022-12-19T08:36:47.711Z,25.30
2022-12-19T08:39:33.171Z,26.17
2022-12-19T08:42:18.620Z,25.63
2022-12-19T08:45:04.628Z,25.02
2022-12-19T08:47:50.255Z,24.35
2022-12-19T08:50:35.875Z,24.00
2022-12-19T08:53:26.224Z,24.48
2022-12-19T08:56:22.102Z,24.80
2022-12-19T08:59:08.055Z,25.25
2022-12-19T09:01:53.865Z,25.08
2022-12-19T09:05:59.415Z,24.15
2022-12-19T09:07:46.650Z,25.52
2022-12-19T09:10:31.948Z,23.90
2022-12-19T09:13:17.474Z,23.95
2022-12-19T09:16:12.439Z,23.50
2022-12-19T09:19:01.374Z,23.08
2022-12-19T09:21:47.482Z,23.77
2022-12-19T09:24:33.878Z,23.77
2022-12-19T09:27:20.007Z,23.75
2022-12-19T09:30:06.220Z,23.10
2022-12-19T09:32:52.320Z,22.30
2022-12-19T09:35:37.812Z,24.30
2022-12-19T09:38:25.421Z,23.42
2022-12-19T09:41:32.856Z,24.23
2022-12-19T09:45:08.414Z,20.63
2022-12-19T09:47:57.990Z,21.98
2022-12-19T09:51:10.140Z,22.52
2022-12-19T09:54:06.039Z,24.63
2022-12-19T09:56:57.177Z,22.42
2022-12-19T09:59:49.929Z,22.58
2022-12-19T10:02:44.406Z,23.20
2022-12-19T10:06:44.080Z,23.10
2022-12-19T10:09:52.000Z,22.38
2022-12-19T10:12:43.778Z,25.00
2022-12-19T10:15:35.790Z,27.60
2022-12-19T10:18:37.009Z,27.52
2022-12-19T10:22:07.639Z,23.92
2022-12-19T10:25:08.687Z,24.10
2022-12-19T10:27:59.775Z,22.92
2022-12-19T10:30:59.653Z,23.15
2022-12-19T10:34:18.714Z,22.55
2022-12-19T10:37:42.357Z,21.38
2022-12-19T10:40:37.699Z,20.33
2022-12-19T10:43:44.393Z,21.50
2022-12-19T10:46:55.993Z,21.98
2022-12-19T10:49:42.399Z,20.55
2022-12-19T10:53:11.148Z,20.75
2022-12-19T10:56:12.820Z,19.42
2022-12-19T10:58:59.075Z,20.40
2022-12-19T11:02:00.186Z,19.20
2022-12-19T11:04:48.344Z,19.65
2022-12-19T11:07:34.941Z,19.13
2022-12-19T11:11:48.496Z,19.33
2022-12-19T11:19:54.237Z,17.50
2022-12-19T11:23:07.957Z,18.60
2022-12-19T11:29:17.731Z,18.95
2022-12-19T11:30:43.752Z,19.40
2022-12-19T11:30:46.605Z,19.30
2022-12-19T11:33:16.780Z,17.70
2022-12-19T11:36:04.965Z,20.50
2022-12-19T11:38:54.231Z,18.90
2022-12-19T11:41:45.811Z,19.27
2022-12-19T11:45:11.881Z,18.77
2022-12-19T11:48:05.540Z,18.60
2022-12-19T11:51:04.190Z,19.25
2022-12-19T11:54:02.174Z,18.00
2022-12-19T11:56:47.963Z,18.30
2022-12-19T11:59:39.485Z,18.73
2022-12-19T12:02:50.304Z,18.25
2022-12-19T12:05:49.694Z,17.50
2022-12-19T12:09:57.687Z,17.95
2022-12-19T12:20:49.882Z,18.58
2022-12-19T12:27:27.292Z,19.08
2022-12-19T12:31:15.312Z,19.50
2022-12-19T12:31:32.655Z,19.13
2022-12-19T12:31:50.263Z,17.80
2022-12-19T12:32:04.827Z,16.95
2022-12-19T12:35:46.568Z,17.02
2022-12-19T12:39:44.640Z,17.90
2022-12-19T12:42:57.340Z,16.20
2022-12-19T12:45:48.187Z,17.58
2022-12-19T12:48:45.796Z,17.42
2022-12-19T12:51:33.976Z,18.10
2022-12-19T12:54:20.889Z,17.10
2022-12-19T12:57:07.069Z,16.75
2022-12-19T13:00:23.340Z,18.20
2022-12-19T13:03:13.961Z,18.60
2022-12-19T13:06:21.056Z,17.42
2022-12-19T13:09:10.060Z,17.13
2022-12-19T13:12:29.579Z,18.02
2022-12-19T13:15:27.649Z,18.25
2022-12-19T13:18:42.244Z,17.25
2022-12-19T13:22:07.590Z,17.08
2022-12-19T13:24:57.855Z,17.75
2022-12-19T13:27:48.488Z,18.50
2022-12-19T13:31:19.045Z,18.05
2022-12-19T13:33:53.870Z,17.40
2022-12-19T13:39:52.340Z,18.25
2022-12-19T13:40:33.162Z,17.85
2022-12-19T13:43:42.563Z,18.23
2022-12-19T13:46:27.942Z,18.77
2022-12-19T13:49:29.862Z,17.95
2022-12-19T13:52:19.525Z,19.23
2022-12-19T13:55:12.604Z,18.02
2022-12-19T13:57:58.508Z,19.00
2022-12-19T14:00:47.475Z,21.17
2022-12-19T14:03:40.835Z,19.60
2022-12-19T14:06:39.275Z,19.75
2022-12-19T14:11:34.414Z,19.30
2022-12-19T14:13:48.250Z,19.42
2022-12-19T14:16:14.560Z,20.27
2022-12-19T14:19:00.699Z,18.98
2022-12-19T14:22:05.376Z,19.15
2022-12-19T14:25:01.259Z,20.42
2022-12-19T14:28:29.201Z,20.15
2022-12-19T14:31:18.910Z,19.65
2022-12-19T14:34:46.610Z,18.08
2022-12-19T14:38:44.815Z,16.92
2022-12-19T14:41:07.314Z,18.08
2022-12-19T14:44:00.338Z,18.80
2022-12-19T14:54:05.396Z,19.58
2022-12-19T14:54:20.955Z,18.90
2022-12-19T14:57:25.522Z,20.50
2022-12-19T15:01:08.108Z,20.80
2022-12-19T15:04:48.303Z,21.58
2022-12-19T15:11:06.148Z,22.05
2022-12-19T15:14:49.150Z,20.50
2022-12-19T15:16:32.154Z,18.65
2022-12-19T15:19:17.933Z,18.80
2022-12-19T15:22:03.688Z,20.77
2022-12-19T15:24:49.849Z,20.73
2022-12-19T15:27:35.344Z,21.25
2022-12-19T15:30:22.575Z,19.85
2022-12-19T15:33:15.888Z,22.40
2022-12-19T15:36:01.525Z,22.42
2022-12-19T15:38:47.594Z,21.15
2022-12-19T15:41:32.952Z,22.25
2022-12-19T15:44:36.954Z,29.20
2022-12-19T15:47:34.099Z,25.27
2022-12-19T15:50:24.794Z,22.45
2022-12-19T15:53:41.059Z,21.98
2022-12-19T15:56:35.094Z,21.75
2022-12-19T15:59:37.530Z,21.25
2022-12-19T16:02:27.965Z,36.13
2022-12-19T16:05:24.639Z,42.80
2022-12-19T16:08:16.207Z,33.22
2022-12-19T16:11:02.539Z,31.40
2022-12-19T16:13:58.242Z,38.80
2022-12-19T16:19:38.025Z,31.80
2022-12-19T16:22:26.312Z,28.67
2022-12-19T16:25:13.295Z,29.30
2022-12-19T16:28:00.812Z,30.05
2022-12-19T16:30:48.612Z,33.78
2022-12-19T16:33:34.127Z,26.20
2022-12-19T16:36:20.605Z,23.55
2022-12-19T16:39:06.374Z,23.23
2022-12-19T16:41:52.112Z,21.63
2022-12-19T16:44:38.300Z,22.83
2022-12-19T16:47:24.004Z,25.35
2022-12-19T16:50:25.140Z,23.50
2022-12-19T16:53:11.181Z,22.55
2022-12-19T16:55:57.682Z,22.70
2022-12-19T16:58:43.572Z,23.73
2022-12-19T17:01:29.540Z,22.85
2022-12-19T17:04:21.678Z,34.58
2022-12-19T17:07:11.117Z,30.27
2022-12-19T17:09:56.459Z,27.63
2022-12-19T17:12:43.567Z,26.20
2022-12-19T17:15:33.751Z,25.30
2022-12-19T17:18:29.319Z,26.00
2022-12-19T17:21:21.709Z,34.45
2022-12-19T17:24:13.349Z,27.52
2022-12-19T17:26:59.225Z,24.95
2022-12-19T17:29:47.169Z,24.48
2022-12-19T17:32:33.246Z,24.38
2022-12-19T17:35:28.182Z,24.00
2022-12-19T17:38:15.968Z,25.40
2022-12-19T17:41:01.789Z,25.77
2022-12-19T17:43:47.680Z,25.42
2022-12-19T17:46:36.595Z,25.48
2022-12-19T17:49:28.276Z,26.80
2022-12-19T17:52:16.362Z,29.92
2022-12-19T17:55:23.619Z,29.63
2022-12-19T17:58:10.771Z,29.95
2022-12-19T18:00:57.020Z,26.50
2022-12-19T18:03:42.914Z,29.00
2022-12-19T18:06:29.053Z,29.45
2022-12-19T18:09:24.379Z,30.27
2022-12-19T18:14:55.456Z,26.45
2022-12-19T18:17:41.183Z,31.40
2022-12-19T18:20:32.314Z,29.88
2022-12-19T18:23:21.294Z,27.13
2022-12-19T18:26:07.019Z,24.17
2022-12-19T18:28:54.439Z,23.27
2022-12-19T18:31:46.520Z,22.25
2022-12-19T18:34:36.308Z,25.75
2022-12-19T18:37:22.125Z,24.15
2022-12-19T18:40:25.952Z,25.20
2022-12-19T18:43:16.339Z,23.80
2022-12-19T18:46:02.273Z,23.00
2022-12-19T18:48:48.822Z,23.25
2022-12-19T18:51:36.582Z,22.30
2022-12-19T18:54:22.536Z,23.10
2022-12-19T18:57:09.197Z,23.05
2022-12-19T18:59:54.800Z,22.90
2022-12-19T19:02:47.597Z,24.58
2022-12-19T19:05:35.899Z,23.85
2022-12-19T19:08:26.627Z,24.83
2022-12-19T19:11:12.315Z,23.30
2022-12-19T19:13:58.043Z,26.13
2022-12-19T19:16:43.403Z,25.67
2022-12-19T19:19:29.314Z,25.42
2022-12-19T19:22:14.898Z,31.65
2022-12-19T19:25:00.367Z,29.77
2022-12-19T19:27:45.990Z,29.05
2022-12-19T19:30:34.777Z,30.70
2022-12-19T19:33:27.452Z,28.42
2022-12-19T19:36:18.270Z,25.63
2022-12-19T19:39:04.907Z,28.65
2022-12-19T19:41:50.687Z,23.20
2022-12-19T19:44:36.148Z,22.38
2022-12-19T19:47:26.806Z,23.80
2022-12-19T19:50:12.933Z,24.95
2022-12-19T19:52:58.956Z,23.27
2022-12-19T19:55:44.462Z,23.73
2022-12-19T19:58:30.677Z,23.30
2022-12-19T20:00:57.692Z,25.30
2022-12-19T20:03:25.188Z,25.92
2022-12-19T20:06:45.339Z,23.98
2022-12-19T20:09:12.364Z,24.70
2022-12-19T20:11:39.520Z,24.65
2022-12-19T20:14:06.572Z,28.52
2022-12-19T20:20:20.904Z,28.98
2022-12-19T20:22:48.008Z,27.67
2022-12-19T20:25:15.195Z,27.50
2022-12-19T20:27:42.083Z,24.83
2022-12-19T20:30:09.588Z,22.73
2022-12-19T20:33:57.471Z,21.55
2022-12-19T20:36:25.193Z,23.73
2022-12-19T20:38:52.183Z,22.85
2022-12-19T20:41:19.214Z,22.40
2022-12-19T20:43:46.293Z,22.45
2022-12-19T20:46:15.903Z,23.65
2022-12-19T20:48:44.194Z,25.98
2022-12-19T20:51:12.884Z,25.75
2022-12-19T20:53:41.712Z,25.98
2022-12-19T20:56:13.703Z,25.75
2022-12-19T20:58:41.350Z,24.42
2022-12-19T21:01:11.723Z,22.15
2022-12-19T21:03:40.110Z,23.60
2022-12-19T21:06:09.426Z,24.50
2022-12-19T21:08:37.144Z,23.75
2022-12-19T21:11:05.567Z,21.50
2022-12-19T21:13:33.968Z,19.55
2022-12-19T21:16:03.148Z,19.27
2022-12-19T21:18:30.946Z,19.80
2022-12-19T21:20:59.724Z,20.92
2022-12-19T21:23:27.238Z,22.10
2022-12-19T21:25:58.454Z,21.38
2022-12-19T21:28:26.040Z,22.30
2022-12-19T21:30:59.751Z,22.63
2022-12-19T21:33:27.521Z,22.13
2022-12-19T21:35:54.770Z,22.35
2022-12-19T21:38:22.519Z,23.00
2022-12-19T21:40:49.917Z,21.27
2022-12-19T21:43:17.075Z,21.23
2022-12-19T21:45:44.227Z,20.15
2022-12-19T21:48:11.546Z,20.08
2022-12-19T21:50:38.687Z,21.55
2022-12-19T21:53:05.911Z,20.40
2022-12-19T21:55:33.029Z,28.02
2022-12-19T21:58:00.173Z,25.40
2022-12-19T22:00:27.419Z,22.88
2022-12-19T22:03:13.148Z,21.75
2022-12-19T22:05:41.597Z,19.42
2022-12-19T22:08:10.956Z,21.42
2022-12-19T22:10:39.833Z,20.50
2022-12-19T22:13:06.998Z,21.40
2022-12-19T22:15:37.178Z,20.85
2022-12-19T22:18:04.445Z,20.65
2022-12-19T22:20:31.536Z,20.58
2022-12-19T22:22:58.671Z,20.08
2022-12-19T22:25:25.849Z,22.00
2022-12-19T22:27:56.063Z,20.77
2022-12-19T22:30:23.311Z,20.77
2022-12-19T22:32:50.537Z,20.08
2022-12-19T22:35:17.802Z,18.77
2022-12-19T22:37:45.281Z,19.20
2022-12-19T22:40:13.430Z,18.05
2022-12-19T22:42:40.618Z,19.08
2022-12-19T22:45:08.281Z,18.50
2022-12-19T22:47:35.830Z,20.33
2022-12-19T22:50:03.273Z,19.60
2022-12-19T22:52:30.318Z,18.38
2022-12-19T22:54:57.669Z,18.25
2022-12-19T22:57:25.119Z,18.77
2022-12-19T22:59:52.303Z,16.83
2022-12-19T23:02:19.871Z,17.40
2022-12-19T23:04:47.168Z,19.10
2022-12-19T23:07:14.477Z,18.30
2022-12-19T23:09:41.758Z,17.33
2022-12-19T23:12:08.898Z,17.75
2022-12-19T23:14:36.017Z,17.63
2022-12-19T23:17:03.230Z,18.30
2022-12-19T23:19:30.396Z,17.83
2022-12-19T23:21:57.565Z,17.10
2022-12-19T23:24:25.083Z,18.33
2022-12-19T23:26:53.360Z,18.73
2022-12-19T23:29:20.642Z,17.92
2022-12-19T23:31:48.143Z,19.08
2022-12-19T23:34:16.603Z,21.42
2022-12-19T23:39:31.180Z,18.08
2022-12-19T23:41:58.340Z,16.40
2022-12-19T23:44:25.512Z,18.35
2022-12-19T23:46:55.494Z,20.02
2022-12-19T23:49:26.515Z,22.13
2022-12-19T23:51:53.516Z,20.25
2022-12-19T23:54:20.562Z,21.10
2022-12-19T23:56:48.837Z,21.85
2022-12-19T23:59:16.253Z,19.92
